sensor_id;sensor_type;location;lat;lon;timestamp;P1;durP1;ratioP1;P2;durP2;ratioP2
77402;SDS011;66472;53.046;8.656;2023-01-10T00:00:23;28.23;;;25.30;;
77402;SDS011;66472;53.046;8.656;2023-01-10T00:05:18;30.73;;;25.73;;
77402;SDS011;66472;53.046;8.656;2023-01-10T00:10:14;26.20;;;23.73;;
77402;SDS011;66472;53.046;8.656;2023-01-10T00:15:09;31.07;;;24.00;;
77402;SDS011;66472;53.046;8.656;2023-01-10T00:20:05;27.07;;;24.63;;
77402;SDS011;66472;53.046;8.656;2023-01-10T00:25:00;26.67;;;24.07;;
77402;SDS011;66472;53.046;8.656;2023-01-10T00:29:55;28.90;;;24.10;;
77402;SDS011;66472;53.046;8.656;2023-01-10T00:34:54;25.40;;;22.90;;
77402;SDS011;66472;53.046;8.656;2023-01-10T00:39:49;24.75;;;22.45;;
77402;SDS011;66472;53.046;8.656;2023-01-10T00:44:44;27.88;;;22.20;;
77402;SDS011;66472;53.046;8.656;2023-01-10T00:49:41;23.87;;;21.63;;
77402;SDS011;66472;53.046;8.656;2023-01-10T00:54:36;23.27;;;19.73;;
77402;SDS011;66472;53.046;8.656;2023-01-10T00:59:31;20.05;;;18.33;;
77402;SDS011;66472;53.046;8.656;2023-01-10T01:04:26;23.73;;;21.43;;
77402;SDS011;66472;53.046;8.656;2023-01-10T01:09:22;24.23;;;22.10;;
77402;SDS011;66472;53.046;8.656;2023-01-10T01:14:17;24.47;;;22.17;;
77402;SDS011;66472;53.046;8.656;2023-01-10T01:19:13;22.30;;;20.23;;
77402;SDS011;66472;53.046;8.656;2023-01-10T01:24:09;26.05;;;18.88;;
77402;SDS011;66472;53.046;8.656;2023-01-10T01:29:04;22.70;;;20.83;;
77402;SDS011;66472;53.046;8.656;2023-01-10T01:34:00;21.67;;;19.80;;
77402;SDS011;66472;53.046;8.656;2023-01-10T01:38:55;22.50;;;20.27;;
77402;SDS011;66472;53.046;8.656;2023-01-10T01:44:01;22.50;;;20.47;;
77402;SDS011;66472;53.046;8.656;2023-01-10T01:48:56;23.40;;;19.93;;
77402;SDS011;66472;53.046;8.656;2023-01-10T01:53:59;23.50;;;21.27;;
77402;SDS011;66472;53.046;8.656;2023-01-10T01:58:58;22.40;;;20.40;;
77402;SDS011;66472;53.046;8.656;2023-01-10T02:03:57;22.87;;;20.53;;
77402;SDS011;66472;53.046;8.656;2023-01-10T02:08:57;21.43;;;19.80;;
77402;SDS011;66472;53.046;8.656;2023-01-10T02:13:53;22.90;;;18.87;;
77402;SDS011;66472;53.046;8.656;2023-01-10T02:18:49;18.47;;;17.03;;
77402;SDS011;66472;53.046;8.656;2023-01-10T02:24:07;20.30;;;18.83;;
77402;SDS011;66472;53.046;8.656;2023-01-10T02:38:57;20.40;;;18.65;;
77402;SDS011;66472;53.046;8.656;2023-01-10T02:43:56;22.43;;;19.07;;
77402;SDS011;66472;53.046;8.656;2023-01-10T02:48:54;21.83;;;19.77;;
77402;SDS011;66472;53.046;8.656;2023-01-10T03:14:24;24.63;;;20.77;;
77402;SDS011;66472;53.046;8.656;2023-01-10T03:19:21;24.37;;;20.67;;
77402;SDS011;66472;53.046;8.656;2023-01-10T03:24:19;22.63;;;20.57;;
77402;SDS011;66472;53.046;8.656;2023-01-10T03:29:31;23.27;;;21.03;;
77402;SDS011;66472;53.046;8.656;2023-01-10T03:34:29;22.67;;;20.80;;
77402;SDS011;66472;53.046;8.656;2023-01-10T03:49:41;23.13;;;21.23;;
77402;SDS011;66472;53.046;8.656;2023-01-10T03:54:38;22.67;;;20.73;;
77402;SDS011;66472;53.046;8.656;2023-01-10T03:59:33;21.83;;;19.10;;
77402;SDS011;66472;53.046;8.656;2023-01-10T04:04:28;24.08;;;21.75;;
77402;SDS011;66472;53.046;8.656;2023-01-10T04:09:24;22.43;;;20.27;;
77402;SDS011;66472;53.046;8.656;2023-01-10T04:14:19;22.70;;;20.63;;
77402;SDS011;66472;53.046;8.656;2023-01-10T04:19:15;25.40;;;20.37;;
77402;SDS011;66472;53.046;8.656;2023-01-10T04:24:10;22.40;;;20.20;;
77402;SDS011;66472;53.046;8.656;2023-01-10T04:29:06;22.57;;;20.60;;
77402;SDS011;66472;53.046;8.656;2023-01-10T04:34:01;23.50;;;21.07;;
77402;SDS011;66472;53.046;8.656;2023-01-10T04:38:56;23.97;;;21.37;;
77402;SDS011;66472;53.046;8.656;2023-01-10T04:43:52;21.17;;;19.23;;
77402;SDS011;66472;53.046;8.656;2023-01-10T04:48:47;32.73;;;19.37;;
77402;SDS011;66472;53.046;8.656;2023-01-10T04:53:42;21.33;;;18.63;;
77402;SDS011;66472;53.046;8.656;2023-01-10T04:58:38;28.57;;;18.63;;
77402;SDS011;66472;53.046;8.656;2023-01-10T05:03:33;27.13;;;19.10;;
77402;SDS011;66472;53.046;8.656;2023-01-10T05:08:28;23.13;;;18.07;;
77402;SDS011;66472;53.046;8.656;2023-01-10T05:13:24;30.27;;;20.03;;
77402;SDS011;66472;53.046;8.656;2023-01-10T05:18:20;24.77;;;18.67;;
77402;SDS011;66472;53.046;8.656;2023-01-10T05:23:16;22.53;;;17.43;;
77402;SDS011;66472;53.046;8.656;2023-01-10T05:28:11;26.30;;;17.43;;
77402;SDS011;66472;53.046;8.656;2023-01-10T05:33:06;32.90;;;18.47;;
77402;SDS011;66472;53.046;8.656;2023-01-10T05:38:02;26.13;;;19.13;;
77402;SDS011;66472;53.046;8.656;2023-01-10T05:42:57;20.47;;;16.90;;
77402;SDS011;66472;53.046;8.656;2023-01-10T05:47:53;19.93;;;18.07;;
77402;SDS011;66472;53.046;8.656;2023-01-10T05:52:48;18.80;;;16.93;;
77402;SDS011;66472;53.046;8.656;2023-01-10T05:57:43;24.20;;;18.40;;
77402;SDS011;66472;53.046;8.656;2023-01-10T06:02:39;19.43;;;17.10;;
77402;SDS011;66472;53.046;8.656;2023-01-10T06:07:34;19.83;;;17.73;;
77402;SDS011;66472;53.046;8.656;2023-01-10T06:12:29;25.33;;;18.20;;
77402;SDS011;66472;53.046;8.656;2023-01-10T06:17:25;19.17;;;17.17;;
77402;SDS011;66472;53.046;8.656;2023-01-10T06:22:20;18.73;;;16.83;;
77402;SDS011;66472;53.046;8.656;2023-01-10T06:27:15;17.57;;;15.83;;
77402;SDS011;66472;53.046;8.656;2023-01-10T06:32:11;19.63;;;14.90;;
77402;SDS011;66472;53.046;8.656;2023-01-10T06:37:06;16.00;;;14.53;;
77402;SDS011;66472;53.046;8.656;2023-01-10T06:42:02;17.20;;;14.00;;
77402;SDS011;66472;53.046;8.656;2023-01-10T06:46:58;13.67;;;12.03;;
77402;SDS011;66472;53.046;8.656;2023-01-10T06:51:53;14.80;;;13.17;;
77402;SDS011;66472;53.046;8.656;2023-01-10T06:56:48;16.97;;;11.37;;
77402;SDS011;66472;53.046;8.656;2023-01-10T07:01:44;14.63;;;11.43;;
77402;SDS011;66472;53.046;8.656;2023-01-10T07:06:39;20.20;;;13.43;;
77402;SDS011;66472;53.046;8.656;2023-01-10T07:11:35;12.10;;;10.30;;
77402;SDS011;66472;53.046;8.656;2023-01-10T07:16:31;10.80;;;9.73;;
77402;SDS011;66472;53.046;8.656;2023-01-10T07:21:26;14.13;;;12.10;;
77402;SDS011;66472;53.046;8.656;2023-01-10T07:26:21;24.40;;;14.03;;
77402;SDS011;66472;53.046;8.656;2023-01-10T07:31:18;23.53;;;13.47;;
77402;SDS011;66472;53.046;8.656;2023-01-10T07:36:14;23.90;;;12.83;;
77402;SDS011;66472;53.046;8.656;2023-01-10T07:41:09;18.00;;;13.57;;
77402;SDS011;66472;53.046;8.656;2023-01-10T07:46:05;23.23;;;15.00;;
77402;SDS011;66472;53.046;8.656;2023-01-10T07:51:03;27.53;;;14.63;;
77402;SDS011;66472;53.046;8.656;2023-01-10T07:55:59;16.63;;;14.73;;
77402;SDS011;66472;53.046;8.656;2023-01-10T08:00:58;15.33;;;13.83;;
77402;SDS011;66472;53.046;8.656;2023-01-10T08:06:04;18.70;;;13.13;;
77402;SDS011;66472;53.046;8.656;2023-01-10T08:11:00;28.07;;;15.63;;
77402;SDS011;66472;53.046;8.656;2023-01-10T08:15:58;18.07;;;13.70;;
77402;SDS011;66472;53.046;8.656;2023-01-10T08:20:54;24.40;;;13.60;;
77402;SDS011;66472;53.046;8.656;2023-01-10T08:25:49;25.63;;;15.03;;
77402;SDS011;66472;53.046;8.656;2023-01-10T08:30:45;21.87;;;13.33;;
77402;SDS011;66472;53.046;8.656;2023-01-10T08:35:41;22.67;;;13.37;;
77402;SDS011;66472;53.046;8.656;2023-01-10T08:40:37;14.17;;;12.60;;
77402;SDS011;66472;53.046;8.656;2023-01-10T08:45:33;18.80;;;12.60;;
77402;SDS011;66472;53.046;8.656;2023-01-10T08:50:29;16.93;;;12.40;;
77402;SDS011;66472;53.046;8.656;2023-01-10T08:55:25;24.63;;;12.73;;
77402;SDS011;66472;53.046;8.656;2023-01-10T09:00:21;12.63;;;11.57;;
77402;SDS011;66472;53.046;8.656;2023-01-10T09:05:16;21.23;;;11.33;;
77402;SDS011;66472;53.046;8.656;2023-01-10T09:10:11;17.63;;;12.03;;
77402;SDS011;66472;53.046;8.656;2023-01-10T09:15:07;18.40;;;11.05;;
77402;SDS011;66472;53.046;8.656;2023-01-10T09:20:02;19.47;;;12.20;;
77402;SDS011;66472;53.046;8.656;2023-01-10T09:25:04;16.87;;;10.97;;
77402;SDS011;66472;53.046;8.656;2023-01-10T09:30:00;16.87;;;10.30;;
77402;SDS011;66472;53.046;8.656;2023-01-10T09:34:56;15.03;;;10.57;;
77402;SDS011;66472;53.046;8.656;2023-01-10T09:39:51;23.88;;;11.73;;
77402;SDS011;66472;53.046;8.656;2023-01-10T09:45:01;13.83;;;11.03;;
77402;SDS011;66472;53.046;8.656;2023-01-10T09:50:18;17.17;;;11.00;;
77402;SDS011;66472;53.046;8.656;2023-01-10T09:55:17;21.23;;;11.80;;
77402;SDS011;66472;53.046;8.656;2023-01-10T10:00:20;15.10;;;12.50;;
77402;SDS011;66472;53.046;8.656;2023-01-10T10:05:21;26.73;;;12.13;;
77402;SDS011;66472;53.046;8.656;2023-01-10T10:10:22;17.87;;;11.23;;
77402;SDS011;66472;53.046;8.656;2023-01-10T10:20:35;25.93;;;12.27;;
77402;SDS011;66472;53.046;8.656;2023-01-10T10:31:47;11.83;;;10.03;;
77402;SDS011;66472;53.046;8.656;2023-01-10T10:36:12;23.40;;;11.43;;
77402;SDS011;66472;53.046;8.656;2023-01-10T10:41:31;26.23;;;12.37;;
77402;SDS011;66472;53.046;8.656;2023-01-10T10:46:24;25.57;;;12.50;;
77402;SDS011;66472;53.046;8.656;2023-01-10T10:51:28;18.80;;;12.67;;
77402;SDS011;66472;53.046;8.656;2023-01-10T10:56:24;26.40;;;13.77;;
77402;SDS011;66472;53.046;8.656;2023-01-10T11:01:20;22.00;;;12.73;;
77402;SDS011;66472;53.046;8.656;2023-01-10T11:06:16;20.20;;;11.70;;
77402;SDS011;66472;53.046;8.656;2023-01-10T11:11:25;18.60;;;12.47;;
77402;SDS011;66472;53.046;8.656;2023-01-10T11:21:19;18.53;;;8.40;;
77402;SDS011;66472;53.046;8.656;2023-01-10T11:26:25;18.60;;;7.57;;
77402;SDS011;66472;53.046;8.656;2023-01-10T11:31:25;8.73;;;7.10;;
77402;SDS011;66472;53.046;8.656;2023-01-10T11:36:20;15.37;;;9.60;;
77402;SDS011;66472;53.046;8.656;2023-01-10T11:46:12;17.60;;;9.53;;
77402;SDS011;66472;53.046;8.656;2023-01-10T11:51:43;17.83;;;8.10;;
77402;SDS011;66472;53.046;8.656;2023-01-10T11:56:32;16.40;;;9.30;;
77402;SDS011;66472;53.046;8.656;2023-01-10T12:01:29;19.23;;;8.80;;
77402;SDS011;66472;53.046;8.656;2023-01-10T12:06:25;19.30;;;9.40;;
77402;SDS011;66472;53.046;8.656;2023-01-10T12:11:23;18.23;;;9.13;;
77402;SDS011;66472;53.046;8.656;2023-01-10T12:21:21;18.77;;;8.83;;
77402;SDS011;66472;53.046;8.656;2023-01-10T12:26:17;20.37;;;8.77;;
77402;SDS011;66472;53.046;8.656;2023-01-10T12:31:13;17.87;;;8.40;;
77402;SDS011;66472;53.046;8.656;2023-01-10T12:41:07;17.70;;;9.00;;
77402;SDS011;66472;53.046;8.656;2023-01-10T12:46:12;20.93;;;9.27;;
77402;SDS011;66472;53.046;8.656;2023-01-10T12:51:11;20.90;;;10.00;;
77402;SDS011;66472;53.046;8.656;2023-01-10T12:56:10;16.03;;;10.23;;
77402;SDS011;66472;53.046;8.656;2023-01-10T13:01:07;22.30;;;9.77;;
77402;SDS011;66472;53.046;8.656;2023-01-10T13:06:04;25.77;;;10.53;;
77402;SDS011;66472;53.046;8.656;2023-01-10T13:11:00;22.33;;;9.67;;
77402;SDS011;66472;53.046;8.656;2023-01-10T13:16:03;18.10;;;10.83;;
77402;SDS011;66472;53.046;8.656;2023-01-10T13:21:03;23.20;;;9.97;;
77402;SDS011;66472;53.046;8.656;2023-01-10T13:26:03;14.07;;;8.97;;
77402;SDS011;66472;53.046;8.656;2023-01-10T13:31:01;17.23;;;10.07;;
77402;SDS011;66472;53.046;8.656;2023-01-10T13:36:05;22.23;;;9.47;;
77402;SDS011;66472;53.046;8.656;2023-01-10T13:41:06;15.87;;;9.97;;
77402;SDS011;66472;53.046;8.656;2023-01-10T13:51:14;19.30;;;8.00;;
77402;SDS011;66472;53.046;8.656;2023-01-10T13:56:29;19.43;;;9.53;;
77402;SDS011;66472;53.046;8.656;2023-01-10T14:01:26;22.70;;;8.43;;
77402;SDS011;66472;53.046;8.656;2023-01-10T14:06:42;13.97;;;9.73;;
77402;SDS011;66472;53.046;8.656;2023-01-10T14:16:37;26.13;;;8.17;;
77402;SDS011;66472;53.046;8.656;2023-01-10T14:21:38;16.20;;;8.23;;
77402;SDS011;66472;53.046;8.656;2023-01-10T14:26:44;21.47;;;8.77;;
77402;SDS011;66472;53.046;8.656;2023-01-10T14:31:44;22.50;;;9.97;;
77402;SDS011;66472;53.046;8.656;2023-01-10T14:36:47;19.50;;;9.00;;
77402;SDS011;66472;53.046;8.656;2023-01-10T14:41:48;25.17;;;10.03;;
77402;SDS011;66472;53.046;8.656;2023-01-10T14:46:49;20.13;;;9.77;;
77402;SDS011;66472;53.046;8.656;2023-01-10T14:51:44;15.80;;;8.60;;
77402;SDS011;66472;53.046;8.656;2023-01-10T14:56:45;17.23;;;8.57;;
77402;SDS011;66472;53.046;8.656;2023-01-10T15:01:41;21.67;;;9.23;;
77402;SDS011;66472;53.046;8.656;2023-01-10T15:12:06;19.90;;;8.97;;
77402;SDS011;66472;53.046;8.656;2023-01-10T15:17:03;22.60;;;9.47;;
77402;SDS011;66472;53.046;8.656;2023-01-10T15:22:00;23.13;;;10.00;;
77402;SDS011;66472;53.046;8.656;2023-01-10T15:26:57;22.97;;;11.07;;
77402;SDS011;66472;53.046;8.656;2023-01-10T15:31:53;19.27;;;9.70;;
77402;SDS011;66472;53.046;8.656;2023-01-10T15:36:52;27.93;;;11.20;;
77402;SDS011;66472;53.046;8.656;2023-01-10T15:41:48;25.23;;;11.47;;
77402;SDS011;66472;53.046;8.656;2023-01-10T15:46:52;20.30;;;10.87;;
77402;SDS011;66472;53.046;8.656;2023-01-10T15:51:48;26.87;;;10.60;;
77402;SDS011;66472;53.046;8.656;2023-01-10T15:56:51;18.53;;;9.27;;
77402;SDS011;66472;53.046;8.656;2023-01-10T16:01:53;21.97;;;9.20;;
77402;SDS011;66472;53.046;8.656;2023-01-10T16:06:51;21.50;;;9.93;;
77402;SDS011;66472;53.046;8.656;2023-01-10T16:11:48;18.93;;;9.40;;
77402;SDS011;66472;53.046;8.656;2023-01-10T16:17:03;20.47;;;8.90;;
77402;SDS011;66472;53.046;8.656;2023-01-10T16:21:58;13.00;;;9.37;;
77402;SDS011;66472;53.046;8.656;2023-01-10T16:26:54;17.07;;;9.40;;
77402;SDS011;66472;53.046;8.656;2023-01-10T16:31:50;17.77;;;9.90;;
77402;SDS011;66472;53.046;8.656;2023-01-10T16:36:47;42.63;;;10.73;;
77402;SDS011;66472;53.046;8.656;2023-01-10T16:41:43;24.97;;;9.83;;
77402;SDS011;66472;53.046;8.656;2023-01-10T16:46:57;15.00;;;7.83;;
77402;SDS011;66472;53.046;8.656;2023-01-10T16:51:52;20.47;;;9.87;;
77402;SDS011;66472;53.046;8.656;2023-01-10T16:56:48;16.70;;;7.77;;
77402;SDS011;66472;53.046;8.656;2023-01-10T17:01:44;16.17;;;8.37;;
77402;SDS011;66472;53.046;8.656;2023-01-10T17:06:43;17.60;;;7.93;;
77402;SDS011;66472;53.046;8.656;2023-01-10T17:11:54;19.70;;;8.13;;
77402;SDS011;66472;53.046;8.656;2023-01-10T17:16:55;21.20;;;7.20;;
77402;SDS011;66472;53.046;8.656;2023-01-10T17:21:51;19.43;;;6.97;;
77402;SDS011;66472;53.046;8.656;2023-01-10T17:26:46;19.17;;;6.43;;
77402;SDS011;66472;53.046;8.656;2023-01-10T17:31:42;15.87;;;6.77;;
77402;SDS011;66472;53.046;8.656;2023-01-10T17:36:37;17.23;;;6.93;;
77402;SDS011;66472;53.046;8.656;2023-01-10T17:41:34;15.57;;;5.60;;
77402;SDS011;66472;53.046;8.656;2023-01-10T17:46:29;16.40;;;6.63;;
77402;SDS011;66472;53.046;8.656;2023-01-10T17:51:24;16.03;;;7.50;;
77402;SDS011;66472;53.046;8.656;2023-01-10T17:56:21;11.07;;;6.13;;
77402;SDS011;66472;53.046;8.656;2023-01-10T18:01:17;13.87;;;6.63;;
77402;SDS011;66472;53.046;8.656;2023-01-10T18:06:13;8.83;;;6.13;;
77402;SDS011;66472;53.046;8.656;2023-01-10T18:11:08;20.13;;;8.23;;
77402;SDS011;66472;53.046;8.656;2023-01-10T18:16:04;15.30;;;7.87;;
77402;SDS011;66472;53.046;8.656;2023-01-10T18:20:59;15.57;;;9.77;;
77402;SDS011;66472;53.046;8.656;2023-01-10T18:26:04;15.13;;;10.27;;
77402;SDS011;66472;53.046;8.656;2023-01-10T18:31:03;13.67;;;10.13;;
77402;SDS011;66472;53.046;8.656;2023-01-10T18:36:02;21.90;;;10.60;;
77402;SDS011;66472;53.046;8.656;2023-01-10T18:40:58;14.10;;;9.30;;
77402;SDS011;66472;53.046;8.656;2023-01-10T18:45:58;12.83;;;8.27;;
77402;SDS011;66472;53.046;8.656;2023-01-10T18:50:54;11.60;;;9.90;;
77402;SDS011;66472;53.046;8.656;2023-01-10T18:55:53;19.13;;;10.10;;
77402;SDS011;66472;53.046;8.656;2023-01-10T19:00:48;9.70;;;8.67;;
77402;SDS011;66472;53.046;8.656;2023-01-10T19:05:44;19.83;;;9.97;;
77402;SDS011;66472;53.046;8.656;2023-01-10T19:10:43;14.70;;;9.23;;
77402;SDS011;66472;53.046;8.656;2023-01-10T19:15:38;13.67;;;10.60;;
77402;SDS011;66472;53.046;8.656;2023-01-10T19:20:34;22.33;;;10.43;;
77402;SDS011;66472;53.046;8.656;2023-01-10T19:25:30;10.55;;;9.48;;
77402;SDS011;66472;53.046;8.656;2023-01-10T19:30:28;13.97;;;9.17;;
77402;SDS011;66472;53.046;8.656;2023-01-10T19:35:23;14.33;;;9.50;;
77402;SDS011;66472;53.046;8.656;2023-01-10T19:40:18;14.77;;;9.63;;
77402;SDS011;66472;53.046;8.656;2023-01-10T19:45:14;16.30;;;9.77;;
77402;SDS011;66472;53.046;8.656;2023-01-10T19:50:09;15.73;;;9.57;;
77402;SDS011;66472;53.046;8.656;2023-01-10T19:55:05;16.53;;;11.40;;
77402;SDS011;66472;53.046;8.656;2023-01-10T20:00:00;12.57;;;10.00;;
77402;SDS011;66472;53.046;8.656;2023-01-10T20:04:55;19.02;;;10.60;;
77402;SDS011;66472;53.046;8.656;2023-01-10T20:09:54;13.13;;;10.95;;
77402;SDS011;66472;53.046;8.656;2023-01-10T20:14:49;13.47;;;12.10;;
77402;SDS011;66472;53.046;8.656;2023-01-10T20:19:47;22.87;;;11.17;;
77402;SDS011;66472;53.046;8.656;2023-01-10T20:24:43;13.83;;;12.70;;
77402;SDS011;66472;53.046;8.656;2023-01-10T20:29:38;14.00;;;11.82;;
77402;SDS011;66472;53.046;8.656;2023-01-10T20:34:36;12.87;;;11.33;;
77402;SDS011;66472;53.046;8.656;2023-01-10T20:39:32;15.90;;;14.13;;
77402;SDS011;66472;53.046;8.656;2023-01-10T20:44:27;15.83;;;14.20;;
77402;SDS011;66472;53.046;8.656;2023-01-10T20:49:23;16.17;;;14.30;;
77402;SDS011;66472;53.046;8.656;2023-01-10T20:54:19;23.98;;;15.05;;
77402;SDS011;66472;53.046;8.656;2023-01-10T20:59:14;22.03;;;17.63;;
77402;SDS011;66472;53.046;8.656;2023-01-10T21:04:09;19.90;;;18.30;;
77402;SDS011;66472;53.046;8.656;2023-01-10T21:09:05;22.73;;;20.00;;
77402;SDS011;66472;53.046;8.656;2023-01-10T21:14:00;22.27;;;20.87;;
77402;SDS011;66472;53.046;8.656;2023-01-10T21:18:55;23.38;;;21.75;;
77402;SDS011;66472;53.046;8.656;2023-01-10T21:23:53;31.17;;;29.13;;
77402;SDS011;66472;53.046;8.656;2023-01-10T21:28:49;27.07;;;25.47;;
77402;SDS011;66472;53.046;8.656;2023-01-10T21:33:44;30.83;;;24.63;;
77402;SDS011;66472;53.046;8.656;2023-01-10T21:38:40;35.40;;;32.67;;
77402;SDS011;66472;53.046;8.656;2023-01-10T21:43:35;31.43;;;29.37;;
77402;SDS011;66472;53.046;8.656;2023-01-10T21:48:31;26.87;;;24.70;;
77402;SDS011;66472;53.046;8.656;2023-01-10T21:53:26;29.57;;;27.83;;
77402;SDS011;66472;53.046;8.656;2023-01-10T21:58:22;27.57;;;25.43;;
77402;SDS011;66472;53.046;8.656;2023-01-10T22:03:17;30.83;;;28.63;;
77402;SDS011;66472;53.046;8.656;2023-01-10T22:08:13;29.53;;;27.43;;
77402;SDS011;66472;53.046;8.656;2023-01-10T22:13:08;28.07;;;26.53;;
77402;SDS011;66472;53.046;8.656;2023-01-10T22:18:03;31.33;;;29.27;;
77402;SDS011;66472;53.046;8.656;2023-01-10T22:22:59;35.70;;;33.33;;
77402;SDS011;66472;53.046;8.656;2023-01-10T22:27:54;30.80;;;29.10;;
77402;SDS011;66472;53.046;8.656;2023-01-10T22:32:53;32.45;;;30.33;;
77402;SDS011;66472;53.046;8.656;2023-01-10T22:37:48;32.47;;;30.43;;
77402;SDS011;66472;53.046;8.656;2023-01-10T22:42:49;32.43;;;30.43;;
77402;SDS011;66472;53.046;8.656;2023-01-10T22:47:48;30.67;;;28.67;;
77402;SDS011;66472;53.046;8.656;2023-01-10T22:52:46;34.57;;;32.17;;
77402;SDS011;66472;53.046;8.656;2023-01-10T22:57:41;27.43;;;25.73;;
77402;SDS011;66472;53.046;8.656;2023-01-10T23:02:37;36.10;;;34.07;;
77402;SDS011;66472;53.046;8.656;2023-01-10T23:07:33;28.67;;;26.87;;
77402;SDS011;66472;53.046;8.656;2023-01-10T23:12:28;19.43;;;18.30;;
77402;SDS011;66472;53.046;8.656;2023-01-10T23:17:23;19.73;;;18.60;;
77402;SDS011;66472;53.046;8.656;2023-01-10T23:22:19;19.67;;;18.27;;
77402;SDS011;66472;53.046;8.656;2023-01-10T23:27:14;17.67;;;16.47;;
77402;SDS011;66472;53.046;8.656;2023-01-10T23:32:09;15.60;;;14.70;;
77402;SDS011;66472;53.046;8.656;2023-01-10T23:37:05;15.57;;;14.53;;
77402;SDS011;66472;53.046;8.656;2023-01-10T23:42:00;14.52;;;13.15;;
77402;SDS011;66472;53.046;8.656;2023-01-10T23:46:55;16.55;;;15.13;;
77402;SDS011;66472;53.046;8.656;2023-01-10T23:51:51;13.80;;;13.10;;
77402;SDS011;66472;53.046;8.656;2023-01-10T23:56:49;15.97;;;14.77;;
